Time;durP1;ratioP1;P1;durP2;ratioP2;P2;SDS_P1;SDS_P2;PMS_P1;PMS_P2;Temp;Humidity;BMP_temperature;BMP_pressure;BME280_temperature;BME280_humidity;BME280_pressure;Samples;Min_cycle;Max_cycle;Signal;HPM_P1;HPM_P2
2021/11/10 00:00:45;;;;;;;26.67;15.77;;;;;;;6.09;63.08;97384.97;5093192;28;20209;-69
2021/11/10 00:03:11;;;;;;;26.40;15.10;;;;;;;5.76;64.43;97390.00;5094495;28;20177;-67
2021/11/10 00:05:37;;;;;;;22.20;13.47;;;;;;;6.16;63.38;97383.56;5086389;28;20189;-67
2021/11/10 00:08:04;;;;;;;23.00;13.50;;;;;;;6.30;63.19;97391.06;5088000;28;20241;-69
2021/11/10 00:10:30;;;;;;;18.47;13.13;;;;;;;6.40;62.67;97378.16;5095820;28;21046;-69
2021/11/10 00:12:57;;;;;;;23.20;12.90;;;;;;;6.43;62.65;97380.53;5108636;28;20435;-69
2021/11/10 00:15:23;;;;;;;21.77;13.63;;;;;;;6.51;62.64;97389.50;5094401;28;20423;-68
2021/11/10 00:17:49;;;;;;;20.40;13.00;;;;;;;6.47;63.10;97393.31;5084830;28;20467;-70
2021/11/10 00:20:14;;;;;;;24.90;12.83;;;;;;;6.53;62.86;97396.25;5103521;28;20206;-67
2021/11/10 00:22:41;;;;;;;23.60;14.33;;;;;;;6.53;62.76;97398.88;5083841;28;20477;-66
2021/11/10 00:25:07;;;;;;;22.77;13.77;;;;;;;6.65;62.32;97404.03;5077002;28;20183;-68
2021/11/10 00:27:33;;;;;;;22.10;13.77;;;;;;;6.64;62.54;97405.00;5093515;28;20447;-68
2021/11/10 00:29:59;;;;;;;24.00;12.67;;;;;;;6.64;62.40;97405.00;5093310;28;20803;-69
2021/11/10 00:32:24;;;;;;;24.73;14.33;;;;;;;6.52;63.60;97407.63;5084880;28;20182;-69
2021/11/10 00:34:50;;;;;;;29.43;15.13;;;;;;;6.61;62.54;97406.88;5085444;28;20185;-67
2021/11/10 00:37:15;;;;;;;20.17;14.63;;;;;;;6.53;62.70;97404.06;5092694;28;20223;-70
2021/11/10 00:39:41;;;;;;;25.80;14.50;;;;;;;6.42;63.40;97407.53;5093170;28;20208;-68
2021/11/10 00:42:07;;;;;;;23.63;14.10;;;;;;;6.45;63.35;97414.25;5093398;28;20625;-67
2021/11/10 00:44:32;;;;;;;29.80;15.60;;;;;;;6.59;62.92;97411.38;5092564;28;20197;-67
2021/11/10 00:46:58;;;;;;;21.97;14.87;;;;;;;6.43;63.43;97400.53;5091755;28;20268;-68
2021/11/10 00:49:24;;;;;;;23.67;15.80;;;;;;;6.49;63.37;97400.06;5084987;28;20225;-66
2021/11/10 00:51:49;;;;;;;25.13;15.03;;;;;;;6.45;63.13;97403.84;5092241;28;20193;-69
2021/11/10 00:54:15;;;;;;;23.33;14.83;;;;;;;6.54;63.10;97400.53;5084832;28;20237;-68
2021/11/10 00:56:41;;;;;;;27.90;16.37;;;;;;;6.57;63.16;97397.66;5083837;28;20193;-68
2021/11/10 00:59:06;;;;;;;27.00;15.83;;;;;;;6.65;62.54;97393.63;5091991;28;20207;-67
2021/11/10 01:01:32;;;;;;;22.40;15.27;;;;;;;6.54;62.72;97403.13;5092712;28;20232;-70
2021/11/10 01:03:59;;;;;;;26.60;15.30;;;;;;;6.51;62.74;97411.19;5083815;28;20186;-68
2021/11/10 01:06:24;;;;;;;21.60;14.43;;;;;;;6.45;63.17;97415.09;5090601;28;20177;-68
2021/11/10 01:08:52;;;;;;;22.37;14.57;;;;;;;6.24;63.56;97409.78;5078151;28;20839;-67
2021/11/10 01:11:18;;;;;;;27.57;15.23;;;;;;;6.32;63.48;97410.97;5084330;28;20178;-67
2021/11/10 01:13:44;;;;;;;24.67;15.93;;;;;;;6.12;64.02;97415.97;5083812;28;20423;-67
2021/11/10 01:16:10;;;;;;;24.63;14.90;;;;;;;6.36;63.46;97415.84;5091974;28;20200;-68
2021/11/10 01:18:36;;;;;;;24.87;15.27;;;;;;;6.40;63.23;97421.63;5083308;28;20576;-67
2021/11/10 01:21:02;;;;;;;23.03;14.80;;;;;;;6.43;63.01;97408.34;5091845;28;20448;-67
2021/11/10 01:23:28;;;;;;;20.80;14.73;;;;;;;6.39;63.29;97409.53;5074009;28;20192;-67
2021/11/10 01:25:54;;;;;;;21.30;14.60;;;;;;;6.37;62.96;97420.06;5091960;28;20545;-68
2021/11/10 01:28:20;;;;;;;22.80;14.53;;;;;;;6.38;63.26;97402.69;5091456;28;20454;-67
2021/11/10 01:30:45;;;;;;;25.03;15.03;;;;;;;6.32;63.46;97392.72;5085452;28;20417;-67
2021/11/10 01:33:11;;;;;;;26.00;15.80;;;;;;;6.33;63.06;97395.25;5082304;28;20173;-66
2021/11/10 01:35:37;;;;;;;25.87;15.13;;;;;;;6.19;63.39;97393.69;5088962;28;20197;-67
2021/11/10 01:38:02;;;;;;;23.53;15.80;;;;;;;6.28;63.46;97386.94;5082291;28;20187;-68
2021/11/10 01:40:28;;;;;;;21.20;15.17;;;;;;;6.26;63.50;97383.63;5091835;28;20205;-68
2021/11/10 01:42:56;;;;;;;26.57;16.40;;;;;;;6.03;64.34;97385.44;5090278;28;20189;-66
2021/11/10 01:45:22;;;;;;;23.40;15.50;;;;;;;6.17;63.97;97369.59;5091588;28;20182;-67
2021/11/10 01:47:48;;;;;;;26.20;16.80;;;;;;;6.24;63.91;97365.53;5084046;28;20786;-66
2021/11/10 01:50:16;;;;;;;25.50;15.40;;;;;;;6.24;63.50;97354.28;5058209;28;20942;-67
2021/11/10 01:52:42;;;;;;;26.43;16.97;;;;;;;6.20;63.27;97358.91;5092190;28;20475;-67
2021/11/10 01:55:08;;;;;;;27.77;16.47;;;;;;;6.20;63.47;97353.72;5091334;28;20523;-67
2021/11/10 01:57:34;;;;;;;23.07;15.37;;;;;;;6.11;64.20;97339.66;5077174;28;20420;-67
2021/11/10 02:00:13;;;;;;;20.10;14.50;;;;;;;6.17;63.52;97338.38;5077953;28;20554;-67
2021/11/10 02:02:42;;;;;;;21.77;14.97;;;;;;;6.19;63.44;97341.66;5094051;28;20200;-67
2021/11/10 02:05:13;;;;;;;23.93;15.03;;;;;;;6.21;62.89;97328.53;5091358;28;20427;-67
2021/11/10 02:07:39;;;;;;;19.70;14.77;;;;;;;6.20;62.84;97329.47;5090696;28;20790;-67
2021/11/10 02:10:07;;;;;;;19.27;13.60;;;;;;;6.17;62.88;97325.34;5092546;28;20480;-68
2021/11/10 02:12:33;;;;;;;23.50;14.43;;;;;;;6.14;62.94;97323.78;5093831;28;20419;-69
2021/11/10 02:14:59;;;;;;;22.23;13.77;;;;;;;6.13;62.75;97321.31;5095015;28;20427;-68
2021/11/10 02:17:25;;;;;;;26.90;16.57;;;;;;;6.02;63.08;97322.16;5093692;28;20941;-66
2021/11/10 02:19:51;;;;;;;23.70;15.93;;;;;;;6.03;63.04;97317.81;5088628;28;20447;-69
2021/11/10 02:22:18;;;;;;;23.50;14.20;;;;;;;6.02;63.29;97323.94;5086507;28;20193;-67
2021/11/10 02:24:45;;;;;;;25.37;15.43;;;;;;;6.05;63.28;97315.91;5095552;28;20221;-67
2021/11/10 02:27:44;;;;;;;18.27;12.97;;;;;;;6.02;63.39;97321.34;5086585;28;20478;-67
2021/11/10 02:30:21;;;;;;;23.10;14.93;;;;;;;6.02;63.38;97308.34;5094131;28;20910;-66
2021/11/10 02:32:48;;;;;;;22.20;14.93;;;;;;;6.03;63.50;97304.78;5094366;28;20825;-67
2021/11/10 02:35:22;;;;;;;21.17;15.43;;;;;;;6.03;63.09;97312.59;5077946;28;20430;-67
2021/11/10 02:37:59;;;;;;;22.70;14.23;;;;;;;5.97;62.80;97306.88;5094808;28;20457;-66
2021/11/10 02:40:25;;;;;;;21.00;14.10;;;;;;;5.93;63.42;97321.06;5094379;28;20455;-66
2021/11/10 02:42:52;;;;;;;20.90;14.80;;;;;;;5.92;63.27;97319.41;5093261;28;20499;-67
2021/11/10 02:45:18;;;;;;;23.27;14.83;;;;;;;5.93;63.24;97321.06;5094952;28;20423;-67
2021/11/10 02:47:43;;;;;;;22.90;15.33;;;;;;;5.84;63.31;97325.25;5087011;28;20520;-66
2021/11/10 02:50:09;;;;;;;25.90;15.33;;;;;;;5.85;63.59;97328.66;5093021;28;20440;-67
2021/11/10 02:52:35;;;;;;;25.47;15.17;;;;;;;5.86;63.05;97316.50;5092897;28;20189;-66
2021/11/10 02:55:02;;;;;;;24.93;14.97;;;;;;;5.84;63.56;97322.63;5094412;28;20510;-67
2021/11/10 02:57:28;;;;;;;22.80;15.23;;;;;;;5.86;63.04;97329.50;5094030;28;20453;-66
2021/11/10 02:59:54;;;;;;;23.33;15.23;;;;;;;5.84;62.80;97320.03;5092258;28;20532;-66
2021/11/10 03:02:27;;;;;;;23.07;14.47;;;;;;;5.83;63.33;97325.34;5079059;28;20181;-67
2021/11/10 03:04:53;;;;;;;22.00;13.77;;;;;;;5.81;63.23;97320.28;5072499;28;20420;-67
2021/11/10 03:07:19;;;;;;;20.03;14.07;;;;;;;5.76;63.42;97330.19;5093643;28;20452;-69
2021/11/10 03:09:46;;;;;;;25.13;14.30;;;;;;;5.74;63.41;97318.25;5075021;28;20529;-67
2021/11/10 03:12:14;;;;;;;25.17;15.07;;;;;;;5.67;63.48;97310.09;5093941;28;20178;-67
2021/11/10 03:14:41;;;;;;;22.57;14.30;;;;;;;5.73;63.35;97314.00;5094867;28;20415;-67
2021/11/10 03:17:09;;;;;;;24.60;14.43;;;;;;;5.74;63.10;97310.47;5093655;28;20505;-67
2021/11/10 03:19:36;;;;;;;25.10;15.07;;;;;;;5.75;63.40;97306.91;5086330;28;20450;-66
2021/11/10 03:22:03;;;;;;;23.43;13.40;;;;;;;5.74;62.93;97310.47;5087714;28;20512;-66
2021/11/10 03:24:29;;;;;;;22.03;13.70;;;;;;;5.75;62.56;97307.72;5094152;28;20770;-67
2021/11/10 03:26:54;;;;;;;18.93;13.30;;;;;;;5.71;62.83;97310.69;5080000;28;20481;-67
2021/11/10 03:29:20;;;;;;;20.77;14.10;;;;;;;5.66;62.90;97311.91;5085839;28;20212;-68
2021/11/10 03:31:46;;;;;;;27.73;14.63;;;;;;;5.67;62.48;97320.50;5093576;28;20239;-66
2021/11/10 03:34:12;;;;;;;23.30;15.00;;;;;;;5.59;62.87;97317.69;5092064;28;20424;-66
2021/11/10 03:36:38;;;;;;;32.00;15.90;;;;;;;5.55;63.19;97327.47;5093838;28;20194;-67
2021/11/10 03:39:06;;;;;;;21.47;14.00;;;;;;;5.53;63.21;97318.97;5076574;28;20457;-66
2021/11/10 03:41:32;;;;;;;21.70;15.33;;;;;;;5.50;63.50;97317.44;5093542;28;20909;-66
2021/11/10 03:43:57;;;;;;;20.90;14.80;;;;;;;5.56;62.86;97323.13;5093468;28;20424;-69
2021/11/10 03:46:23;;;;;;;23.23;15.23;;;;;;;5.53;62.87;97319.78;5086543;28;20688;-69
2021/11/10 03:48:50;;;;;;;27.00;14.43;;;;;;;5.51;62.68;97321.69;5078778;28;20288;-68
2021/11/10 03:51:16;;;;;;;28.03;15.50;;;;;;;5.48;63.54;97321.91;5093145;28;20511;-68
2021/11/10 03:53:42;;;;;;;23.10;14.50;;;;;;;5.47;63.83;97320.28;5093550;28;20426;-67
2021/11/10 03:56:07;;;;;;;29.40;15.60;;;;;;;5.31;63.70;97320.59;5092923;28;20420;-67
2021/11/10 03:58:33;;;;;;;30.83;15.10;;;;;;;5.38;63.62;97321.81;5092835;28;20992;-66
2021/11/10 04:00:59;;;;;;;24.70;15.17;;;;;;;5.42;63.33;97331.97;5093066;28;20209;-67
2021/11/10 04:03:25;;;;;;;23.53;15.57;;;;;;;5.45;63.61;97321.31;5086459;28;20553;-67
2021/11/10 04:05:51;;;;;;;23.60;16.47;;;;;;;5.31;64.12;97328.41;5089600;28;20645;-67
2021/11/10 04:08:17;;;;;;;31.27;16.83;;;;;;;5.41;63.50;97317.31;5092694;28;20932;-66
2021/11/10 04:10:43;;;;;;;25.70;15.10;;;;;;;5.37;63.33;97309.75;5092942;28;20420;-67
2021/11/10 04:13:08;;;;;;;22.07;15.17;;;;;;;5.42;63.94;97308.59;5093049;28;20204;-68
2021/11/10 04:15:34;;;;;;;21.43;14.60;;;;;;;5.50;63.86;97308.81;5093144;28;20273;-67
2021/11/10 04:18:00;;;;;;;25.40;15.07;;;;;;;5.49;63.71;97310.56;5085063;28;20182;-66
2021/11/10 04:20:26;;;;;;;28.43;16.10;;;;;;;5.48;63.82;97311.50;5090852;28;20214;-68
2021/11/10 04:22:52;;;;;;;26.57;13.33;;;;;;;5.51;63.47;97320.88;5077303;28;20421;-69
2021/11/10 04:25:17;;;;;;;26.07;14.67;;;;;;;5.53;63.87;97318.97;5093293;28;20245;-69
2021/11/10 04:27:43;;;;;;;24.20;15.97;;;;;;;5.54;63.59;97318.03;5081936;28;20517;-67
2021/11/10 04:30:11;;;;;;;26.20;16.27;;;;;;;5.53;63.66;97317.19;5079256;28;20826;-66
2021/11/10 04:32:38;;;;;;;23.37;14.30;;;;;;;5.54;63.87;97320.66;5073793;28;20266;-68
2021/11/10 04:35:08;;;;;;;25.53;14.70;;;;;;;5.46;63.97;97320.38;5072779;28;20536;-68
2021/11/10 04:37:34;;;;;;;23.27;14.90;;;;;;;5.50;63.84;97324.41;5070948;28;20527;-69
2021/11/10 04:40:00;;;;;;;30.03;16.70;;;;;;;5.41;64.05;97319.91;5070013;28;20468;-69
2021/11/10 04:42:26;;;;;;;26.30;15.80;;;;;;;5.30;64.38;97313.75;5085809;28;20520;-70
2021/11/10 04:44:58;;;;;;;24.13;15.60;;;;;;;5.06;65.17;97316.44;5069259;28;20507;-68
2021/11/10 04:47:23;;;;;;;24.70;15.70;;;;;;;5.03;65.36;97320.09;5070031;28;20240;-68
2021/11/10 04:49:49;;;;;;;27.33;15.60;;;;;;;4.96;65.75;97320.66;5067931;28;20950;-69
2021/11/10 04:52:17;;;;;;;22.20;15.27;;;;;;;4.95;66.23;97314.63;5080876;28;20183;-68
2021/11/10 04:54:42;;;;;;;25.83;15.30;;;;;;;4.86;66.65;97310.13;5072590;28;20193;-67
2021/11/10 04:57:08;;;;;;;24.93;15.77;;;;;;;4.84;67.02;97306.81;5072458;28;20448;-67
2021/11/10 04:59:33;;;;;;;110.63;30.97;;;;;;;4.69;66.86;97293.19;5066805;28;20221;-68
2021/11/10 05:04:25;;;;;;;34.90;17.63;;;;;;;4.97;66.08;97288.56;5075756;28;20202;-68
2021/11/10 05:06:50;;;;;;;25.27;16.80;;;;;;;4.92;66.20;97283.69;5077333;28;20189;-69
2021/11/10 05:09:16;;;;;;;35.40;16.60;;;;;;;4.99;66.49;97290.09;5070498;28;20201;-67
2021/11/10 05:11:41;;;;;;;126.33;32.73;;;;;;;5.18;65.87;97283.50;5063422;28;20189;-70
2021/11/10 05:14:07;;;;;;;29.73;17.70;;;;;;;5.18;65.51;97288.69;5070445;28;20187;-66
2021/11/10 05:16:33;;;;;;;23.50;15.23;;;;;;;5.16;65.49;97285.41;5072934;28;20182;-68
2021/11/10 05:18:58;;;;;;;33.70;16.30;;;;;;;5.26;65.31;97301.94;5075933;28;20213;-68
2021/11/10 05:21:24;;;;;;;32.13;17.23;;;;;;;5.35;65.07;97301.25;5080244;28;20205;-68
2021/11/10 05:23:49;;;;;;;25.10;15.73;;;;;;;5.31;65.45;97299.81;5079333;28;20213;-68
2021/11/10 05:26:15;;;;;;;32.00;15.67;;;;;;;5.48;65.24;97310.69;5071627;28;20189;-69
2021/11/10 05:28:40;;;;;;;23.53;15.20;;;;;;;5.64;65.04;97316.38;5070892;28;20210;-69
2021/11/10 05:31:06;;;;;;;32.20;16.87;;;;;;;5.66;64.20;97317.09;5073310;28;20641;-68
2021/11/10 05:33:32;;;;;;;26.63;15.20;;;;;;;5.67;64.46;97321.31;5081035;28;20190;-69
2021/11/10 05:35:57;;;;;;;28.40;15.83;;;;;;;5.73;64.09;97316.59;5075754;28;20692;-69
2021/11/10 05:38:23;;;;;;;27.57;15.93;;;;;;;5.74;64.21;97318.25;5083831;28;20197;-70
2021/11/10 05:40:49;;;;;;;22.60;14.90;;;;;;;5.74;63.98;97320.88;5076234;28;20217;-68
2021/11/10 05:43:14;;;;;;;22.80;14.67;;;;;;;5.66;64.59;97332.69;5076403;28;20259;-69
2021/11/10 05:45:40;;;;;;;31.17;16.63;;;;;;;5.73;64.45;97327.84;5089034;28;20209;-68
2021/11/10 05:48:06;;;;;;;25.47;15.20;;;;;;;5.75;64.29;97331.13;5073854;28;20425;-68
2021/11/10 05:50:31;;;;;;;23.67;15.10;;;;;;;5.83;63.92;97320.97;5075645;28;20232;-68
2021/11/10 05:52:57;;;;;;;24.60;15.20;;;;;;;5.83;63.81;97322.75;5083802;28;20220;-66
2021/11/10 05:55:25;;;;;;;26.97;14.87;;;;;;;5.60;64.27;97319.34;5082277;28;20198;-69
2021/11/10 05:57:52;;;;;;;23.67;14.93;;;;;;;5.75;63.96;97312.13;5074877;28;20465;-69
2021/11/10 06:00:19;;;;;;;27.20;16.63;;;;;;;5.52;64.27;97307.75;5074888;28;20499;-69
2021/11/10 06:02:44;;;;;;;27.70;17.10;;;;;;;5.23;65.48;97297.78;5074629;28;20435;-70
2021/11/10 06:05:13;;;;;;;30.60;15.73;;;;;;;5.07;66.67;97297.31;5072929;28;20416;-68
2021/11/10 06:07:39;;;;;;;23.97;15.07;;;;;;;5.30;65.91;97308.53;5083335;28;20193;-68
2021/11/10 06:10:05;;;;;;;22.93;14.50;;;;;;;5.40;65.23;97306.09;5082756;28;20436;-68
2021/11/10 06:12:30;;;;;;;26.80;15.20;;;;;;;5.51;64.38;97305.28;5074958;28;20483;-67
2021/11/10 06:14:56;;;;;;;24.37;15.83;;;;;;;5.65;64.20;97305.03;5091129;28;20426;-68
2021/11/10 06:17:22;;;;;;;26.67;16.03;;;;;;;5.59;63.70;97315.91;5074267;28;20625;-68
2021/11/10 06:19:47;;;;;;;26.73;14.60;;;;;;;5.65;63.74;97318.03;5073511;28;20194;-70
2021/11/10 06:22:14;;;;;;;25.57;16.10;;;;;;;5.59;64.09;97317.69;5075948;28;20257;-67
2021/11/10 06:24:39;;;;;;;23.20;14.40;;;;;;;5.64;65.08;97316.38;5081284;28;20676;-67
2021/11/10 06:27:05;;;;;;;21.90;15.43;;;;;;;5.68;64.06;97304.78;5075486;28;20431;-68
2021/11/10 06:29:31;;;;;;;25.47;15.63;;;;;;;5.74;63.37;97311.28;5073925;28;20202;-68
2021/11/10 06:31:57;;;;;;;24.10;15.57;;;;;;;5.75;63.61;97317.31;5080763;28;20922;-68
2021/11/10 06:34:22;;;;;;;23.20;14.80;;;;;;;5.75;63.43;97318.13;5074055;28;20236;-69
2021/11/10 06:36:48;;;;;;;26.43;16.30;;;;;;;5.75;63.64;97323.34;5075002;28;20218;-68
2021/11/10 06:39:14;;;;;;;29.20;18.43;;;;;;;5.73;63.63;97314.84;5068969;28;20198;-67
2021/11/10 06:41:40;;;;;;;26.10;15.03;;;;;;;5.73;63.28;97314.84;5078730;28;20293;-68
2021/11/10 06:44:06;;;;;;;35.13;16.63;;;;;;;5.76;63.31;97324.19;5073594;28;20523;-68
2021/11/10 06:46:32;;;;;;;33.33;16.20;;;;;;;5.78;63.26;97317.09;5075155;28;20465;-68
2021/11/10 06:48:57;;;;;;;26.90;16.93;;;;;;;5.79;62.97;97316.97;5081504;28;20567;-68
2021/11/10 06:51:23;;;;;;;30.60;16.07;;;;;;;5.79;62.82;97309.16;5094142;28;20505;-69
2021/11/10 06:53:48;;;;;;;28.10;16.10;;;;;;;5.83;62.70;97318.38;5093982;28;20181;-68
2021/11/10 06:56:16;;;;;;;32.40;16.43;;;;;;;5.79;62.73;97321.34;5085995;28;20182;-68
2021/11/10 06:58:41;;;;;;;27.80;17.20;;;;;;;5.82;63.03;97323.69;5094028;28;20198;-69
2021/11/10 07:01:07;;;;;;;38.53;15.43;;;;;;;5.86;62.79;97330.31;5093957;28;20988;-67
2021/11/10 07:03:33;;;;;;;37.03;17.10;;;;;;;5.60;62.48;97327.16;5091615;28;20597;-68
2021/11/10 07:05:59;;;;;;;41.57;17.20;;;;;;;5.46;63.07;97322.97;5090683;28;20186;-68
2021/11/10 07:08:24;;;;;;;31.93;16.17;;;;;;;5.67;62.79;97336.94;5075800;28;20186;-67
2021/11/10 07:10:50;;;;;;;30.63;16.50;;;;;;;5.46;62.86;97341.19;5049549;28;20530;-68
2021/11/10 07:13:15;;;;;;;30.07;17.10;;;;;;;5.64;63.46;97342.38;5094923;28;20174;-69
2021/11/10 07:15:41;;;;;;;28.60;16.23;;;;;;;5.67;63.05;97339.53;5066144;28;20959;-68
2021/11/10 07:18:07;;;;;;;25.53;15.13;;;;;;;5.85;63.38;97346.88;5078624;28;20583;-69
2021/11/10 07:20:32;;;;;;;26.83;17.90;;;;;;;5.92;62.80;97345.44;5081678;28;20213;-67
2021/11/10 07:22:59;;;;;;;22.40;15.70;;;;;;;6.01;62.22;97353.50;5071749;28;20566;-68
2021/11/10 07:25:26;;;;;;;40.17;16.47;;;;;;;5.94;62.37;97345.34;5068765;28;20212;-68
2021/11/10 07:27:52;;;;;;;27.93;16.13;;;;;;;6.07;62.81;97342.63;5065595;28;20417;-68
2021/11/10 07:30:18;;;;;;;30.60;17.27;;;;;;;6.18;62.65;97345.19;5082288;28;21000;-68
2021/11/10 07:32:44;;;;;;;32.77;16.20;;;;;;;6.28;62.41;97340.94;5089573;28;20423;-69
2021/11/10 07:35:11;;;;;;;29.33;16.50;;;;;;;6.37;62.39;97338.53;5092854;28;20420;-68
2021/11/10 07:37:38;;;;;;;35.37;16.53;;;;;;;6.53;62.22;97338.13;5093115;28;20733;-68
2021/11/10 07:40:05;;;;;;;33.00;16.80;;;;;;;6.60;61.85;97349.72;5091911;28;20978;-69
2021/11/10 07:42:32;;;;;;;30.67;19.97;;;;;;;6.69;61.70;97353.34;5092792;28;20808;-68
2021/11/10 07:45:06;;;;;;;30.10;18.60;;;;;;;6.79;61.10;97341.25;5093808;28;20462;-68
2021/11/10 07:47:41;;;;;;;26.77;17.10;;;;;;;6.87;60.76;97341.44;5093831;28;20466;-69
2021/11/10 07:50:12;;;;;;;34.70;17.27;;;;;;;6.96;60.82;97344.22;5074725;28;20492;-69
2021/11/10 07:52:38;;;;;;;32.57;18.40;;;;;;;7.05;60.46;97338.28;5093133;28;20450;-69
2021/11/10 07:55:04;;;;;;;28.73;16.87;;;;;;;7.03;60.67;97340.19;5091421;28;20428;-68
2021/11/10 07:57:30;;;;;;;33.03;18.00;;;;;;;7.21;60.35;97343.84;5084939;28;20902;-67
2021/11/10 07:59:55;;;;;;;37.67;16.50;;;;;;;7.31;60.59;97351.75;5091429;28;20451;-68
2021/11/10 08:02:21;;;;;;;31.70;17.47;;;;;;;7.29;60.48;97347.63;5078756;28;20593;-68
2021/11/10 08:04:48;;;;;;;28.33;17.40;;;;;;;7.47;59.95;97340.03;5089506;28;20182;-68
2021/11/10 08:07:13;;;;;;;30.07;17.77;;;;;;;7.62;60.16;97345.72;5092483;28;20446;-69
2021/11/10 08:09:39;;;;;;;40.60;20.30;;;;;;;7.74;59.28;97344.69;5082414;28;20440;-68
2021/11/10 08:12:05;;;;;;;32.27;18.73;;;;;;;7.76;59.42;97342.78;5092089;28;20188;-70
2021/11/10 08:14:30;;;;;;;30.80;18.07;;;;;;;7.92;59.11;97354.53;5091591;28;20194;-68
2021/11/10 08:16:56;;;;;;;33.50;18.07;;;;;;;7.86;59.03;97357.63;5093702;28;20449;-69
2021/11/10 08:19:24;;;;;;;29.40;18.10;;;;;;;7.84;58.86;97355.97;5070046;28;20228;-69
2021/11/10 08:21:50;;;;;;;37.13;18.30;;;;;;;7.97;59.22;97353.16;5082791;28;20878;-68
2021/11/10 08:24:16;;;;;;;34.70;20.93;;;;;;;8.19;58.44;97359.13;5089748;28;20460;-69
2021/11/10 08:26:42;;;;;;;28.53;18.00;;;;;;;8.28;58.18;97363.53;5082328;28;20290;-68
2021/11/10 08:29:07;;;;;;;26.60;17.53;;;;;;;8.38;57.99;97344.47;5098583;28;20268;-68
2021/11/10 08:31:33;;;;;;;29.50;18.20;;;;;;;8.30;57.57;97343.34;5096083;28;20178;-69
2021/11/10 08:33:58;;;;;;;28.37;19.20;;;;;;;8.36;57.94;97349.81;5104199;28;20658;-67
2021/11/10 08:36:26;;;;;;;32.13;19.00;;;;;;;8.38;57.36;97354.91;5103745;28;20222;-68
2021/11/10 08:38:53;;;;;;;28.77;18.47;;;;;;;8.54;57.84;97363.06;5101009;28;20548;-68
2021/11/10 08:41:21;;;;;;;31.87;18.40;;;;;;;8.65;57.71;97369.97;5093635;28;20472;-67
2021/11/10 08:43:50;;;;;;;28.90;19.20;;;;;;;8.56;56.72;97371.59;5091099;28;20501;-67
2021/11/10 08:46:15;;;;;;;27.60;18.30;;;;;;;8.72;57.65;97378.91;5074986;28;20485;-70
2021/11/10 08:48:41;;;;;;;27.97;19.67;;;;;;;8.81;56.87;97373.84;5082792;28;20448;-70
2021/11/10 08:51:07;;;;;;;29.90;18.67;;;;;;;8.68;56.75;97359.25;5039516;28;20209;-67
2021/11/10 08:53:34;;;;;;;27.87;18.30;;;;;;;8.89;56.29;97356.47;5084872;28;20185;-68
2021/11/10 08:56:00;;;;;;;31.30;18.23;;;;;;;9.01;56.61;97353.75;5089901;28;20780;-68
2021/11/10 08:58:27;;;;;;;24.40;16.27;;;;;;;9.23;56.14;97347.38;5086666;28;20428;-67
2021/11/10 09:00:54;;;;;;;26.83;17.83;;;;;;;9.28;56.05;97354.78;5089136;28;20248;-66
2021/11/10 09:03:21;;;;;;;29.53;19.00;;;;;;;9.35;55.96;97354.09;5092187;28;20431;-68
2021/11/10 09:05:48;;;;;;;27.93;17.43;;;;;;;9.42;56.41;97364.00;5087589;28;20436;-67
2021/11/10 09:08:14;;;;;;;25.40;17.10;;;;;;;9.54;55.73;97355.03;5089389;28;20419;-68
2021/11/10 09:10:40;;;;;;;30.87;17.67;;;;;;;9.65;54.74;97361.88;5091629;28;20444;-68
2021/11/10 09:13:06;;;;;;;30.37;17.53;;;;;;;9.57;54.75;97365.22;5091484;28;20185;-67
2021/11/10 09:15:33;;;;;;;27.67;16.93;;;;;;;9.60;54.30;97362.31;5090466;28;20427;-68
2021/11/10 09:18:00;;;;;;;32.40;17.87;;;;;;;9.64;54.65;97360.25;5089363;28;20209;-68
2021/11/10 09:20:27;;;;;;;28.03;18.10;;;;;;;9.80;54.22;97373.53;5089844;28;20465;-68
2021/11/10 09:22:54;;;;;;;28.03;17.73;;;;;;;9.94;54.05;97374.88;5074808;28;20434;-69
2021/11/10 09:25:20;;;;;;;27.60;17.70;;;;;;;9.99;53.72;97364.78;5090840;28;20976;-68
2021/11/10 09:27:46;;;;;;;26.27;17.70;;;;;;;9.26;55.32;97368.03;5091458;28;20511;-67
2021/11/10 09:30:15;;;;;;;27.63;17.43;;;;;;;9.81;54.35;97367.34;5091346;28;20462;-70
2021/11/10 09:32:45;;;;;;;22.50;15.77;;;;;;;9.99;54.15;97356.91;5092635;28;20188;-68
2021/11/10 09:35:11;;;;;;;29.97;19.00;;;;;;;10.18;53.28;97357.81;5091725;28;20423;-68
2021/11/10 09:37:38;;;;;;;33.77;19.37;;;;;;;10.15;54.27;97358.09;5091552;28;20427;-70
2021/11/10 09:40:06;;;;;;;37.83;19.80;;;;;;;10.39;53.74;97354.13;5090911;28;20737;-67
2021/11/10 09:42:34;;;;;;;53.03;22.83;;;;;;;10.59;53.08;97366.13;5089747;28;20423;-68
2021/11/10 09:44:59;;;;;;;27.60;17.97;;;;;;;10.72;52.46;97364.94;5089534;28;20416;-68
2021/11/10 09:47:25;;;;;;;35.37;18.20;;;;;;;10.86;52.61;97356.56;5035179;28;20938;-69
2021/11/10 09:49:51;;;;;;;31.73;19.43;;;;;;;10.93;52.27;97358.59;5052285;28;20332;-69
2021/11/10 09:52:17;;;;;;;32.93;18.27;;;;;;;11.00;52.34;97357.00;5091561;28;20423;-68
2021/11/10 09:54:44;;;;;;;26.13;17.20;;;;;;;11.12;51.83;97368.09;5090773;28;20525;-69
2021/11/10 09:57:09;;;;;;;23.77;16.40;;;;;;;11.13;52.04;97365.28;5090625;28;20489;-69
2021/11/10 09:59:36;;;;;;;26.40;16.13;;;;;;;11.15;52.00;97359.91;5091012;28;20439;-68
2021/11/10 10:02:04;;;;;;;24.77;16.27;;;;;;;10.96;51.99;97356.47;5082638;28;20210;-68
2021/11/10 10:04:29;;;;;;;23.90;16.27;;;;;;;11.13;51.34;97356.63;5081704;28;20856;-71
2021/11/10 10:06:55;;;;;;;22.43;16.03;;;;;;;11.06;51.69;97346.72;5091202;28;20431;-67
2021/11/10 10:09:21;;;;;;;30.10;16.70;;;;;;;11.25;51.23;97344.06;5090134;28;20255;-68
2021/11/10 10:11:47;;;;;;;25.27;16.93;;;;;;;11.29;51.47;97345.41;5091509;28;20586;-68
2021/11/10 10:14:13;;;;;;;27.67;15.73;;;;;;;11.41;51.32;97348.59;5092563;28;20186;-68
2021/11/10 10:16:38;;;;;;;28.03;16.90;;;;;;;11.44;50.96;97349.13;5094757;28;20431;-69
2021/11/10 10:19:08;;;;;;;26.00;16.37;;;;;;;11.24;51.20;97353.75;5103161;28;20216;-68
2021/11/10 10:21:35;;;;;;;27.83;15.77;;;;;;;11.27;51.04;97345.59;5103837;28;20229;-69
2021/11/10 10:24:02;;;;;;;23.03;16.10;;;;;;;11.42;51.01;97352.88;5105731;28;20978;-70
2021/11/10 10:26:28;;;;;;;24.40;15.77;;;;;;;11.21;51.66;97349.63;5103104;28;20427;-69
2021/11/10 10:28:56;;;;;;;18.73;13.80;;;;;;;11.38;50.86;97344.50;5101682;28;20455;-68
2021/11/10 10:31:25;;;;;;;20.57;15.20;;;;;;;11.56;50.48;97335.75;5100289;28;20419;-68
2021/11/10 10:33:57;;;;;;;21.67;15.13;;;;;;;11.64;49.92;97327.91;5096213;28;20427;-68
2021/11/10 10:36:27;;;;;;;30.33;15.50;;;;;;;11.69;49.85;97325.66;5095446;28;20527;-67
2021/11/10 10:38:57;;;;;;;23.30;14.77;;;;;;;11.86;49.30;97325.72;5094745;28;20501;-67
2021/11/10 10:41:33;;;;;;;23.33;15.00;;;;;;;12.04;49.21;97317.75;5095009;28;20451;-67
2021/11/10 10:44:14;;;;;;;28.40;15.40;;;;;;;12.13;48.13;97311.59;5094508;28;20430;-66
2021/11/10 10:46:42;;;;;;;30.60;14.73;;;;;;;12.27;48.32;97312.75;5094522;28;20451;-66
2021/11/10 10:49:17;;;;;;;22.13;14.87;;;;;;;12.42;47.80;97315.56;5091318;28;20477;-70
2021/11/10 10:51:53;;;;;;;20.83;13.70;;;;;;;12.36;48.06;97306.53;5092561;28;20978;-68
2021/11/10 10:54:28;;;;;;;26.97;16.40;;;;;;;12.41;48.10;97300.81;5081826;28;20416;-68
2021/11/10 10:56:56;;;;;;;25.63;16.60;;;;;;;12.52;47.36;97307.56;5095969;28;20431;-68
2021/11/10 10:59:26;;;;;;;22.30;15.00;;;;;;;12.52;46.71;97310.19;5094009;28;20478;-67
2021/11/10 11:01:53;;;;;;;29.17;14.93;;;;;;;12.28;47.26;97306.53;5094613;28;20459;-67
2021/11/10 11:04:22;;;;;;;24.93;14.47;;;;;;;12.07;47.98;97307.78;5087158;28;20421;-70
2021/11/10 11:06:57;;;;;;;25.13;13.93;;;;;;;12.36;47.32;97303.91;5090938;28;20416;-69
2021/11/10 11:09:26;;;;;;;27.23;13.60;;;;;;;12.43;46.69;97297.03;5080270;28;20439;-68
2021/11/10 11:12:13;;;;;;;28.83;13.37;;;;;;;12.93;46.20;97297.06;5094747;28;20416;-69
2021/11/10 11:14:48;;;;;;;19.40;13.90;;;;;;;13.20;44.56;97300.34;5060744;28;20537;-68
2021/11/10 11:17:30;;;;;;;23.57;13.17;;;;;;;13.31;44.45;97304.41;5077685;28;20411;-68
2021/11/10 11:20:03;;;;;;;25.97;14.03;;;;;;;13.20;45.73;97310.88;5091588;28;20446;-67
2021/11/10 11:22:50;;;;;;;28.00;14.83;;;;;;;13.04;46.06;97304.63;5085805;28;20507;-68
2021/11/10 11:25:16;;;;;;;26.70;14.23;;;;;;;13.49;45.03;97302.44;5094688;28;20455;-69